EDT,Max TemperatureF,Mean TemperatureF,Min TemperatureF,Max Dew PointF,MeanDew PointF,Min DewpointF,Max Humidity, Mean Humidity, Min Humidity, Max Sea Level PressureIn, Mean Sea Level PressureIn, Min Sea Level PressureIn, Max VisibilityMiles, Mean VisibilityMiles, Min VisibilityMiles, Max Wind SpeedMPH, Mean Wind SpeedMPH, Max Gust SpeedMPH,PrecipitationIn, CloudCover, Events, WindDirDegrees
2012-10-1,64,54,44,49,45,42,93,73,52,29.97,29.92,29.86,10,10,10,9,5,12,T,1,,172
2012-10-2,66,61,56,63,58,48,100,86,72,29.91,29.87,29.83,10,5,1,16,6,21,0.49,8,Rain,65
2012-10-3,72,66,60,64,61,56,100,83,66,30.14,30.01,29.90,10,6,0,12,4,18,T,6,Fog-Rain,244
2012-10-4,74,67,59,55,53,50,84,64,44,30.15,30.11,30.05,10,10,9,21,8,25,0.00,1,,210
2012-10-5,67,60,52,58,54,49,93,78,63,30.05,30.00,29.93,10,9,2,17,9,24,0.48,8,Rain,249
2012-10-6,54,51,48,50,41,34,96,73,50,30.07,29.95,29.88,10,8,2,22,11,35,0.66,8,Rain,279
2012-10-7,48,46,43,43,41,36,89,73,56,30.16,30.08,30.04,10,8,2,14,5,18,0.53,8,Rain,226
2012-10-8,53,46,39,40,36,33,92,71,50,30.24,30.20,30.15,10,10,8,14,8,17,0.03,6,Rain,188
2012-10-9,59,48,37,38,35,34,85,61,37,30.21,30.11,29.96,10,10,9,15,10,22,0.00,0,,176
2012-10-10,53,48,43,45,40,27,93,71,49,30.12,29.92,29.83,10,7,2,28,15,40,0.45,7,Rain,239
2012-10-11,57,49,41,35,29,25,62,49,36,30.25,30.15,30.07,10,10,10,26,13,32,0.00,3,,234
2012-10-12,53,45,36,43,34,28,82,64,46,30.45,30.30,30.09,10,10,6,17,8,25,0.09,5,Rain,352
2012-10-13,59,46,33,50,32,24,82,60,38,30.45,30.25,29.97,10,10,5,24,13,35,0.20,3,Rain,166
2012-10-14,76,68,59,59,56,53,78,64,49,29.95,29.81,29.58,10,10,10,31,20,43,0.01,6,Rain,194
2012-10-15,67,59,50,56,47,41,89,78,66,29.88,29.73,29.53,10,9,4,32,14,44,0.10,8,Rain,258
2012-10-16,53,48,42,41,39,35,89,73,56,29.97,29.91,29.86,10,10,10,14,7,21,T,5,Rain,301
2012-10-17,71,59,47,46,41,37,71,57,42,29.89,29.81,29.72,10,10,10,22,15,29,0.00,2,,166
2012-10-18,69,59,48,48,44,39,83,64,45,29.79,29.68,29.61,10,9,2,26,14,40,0.08,4,Rain,172
2012-10-19,65,56,46,51,43,37,86,62,37,29.78,29.69,29.60,10,10,6,20,8,23,0.07,5,Rain,164
2012-10-20,54,51,47,46,43,40,93,78,63,29.88,29.74,29.65,10,7,1,23,11,29,0.87,8,Rain,227
2012-10-21,57,51,44,46,44,37,93,80,66,30.13,30.04,29.90,10,10,10,17,8,23,0.00,4,,236
2012-10-22,70,57,43,52,44,37,76,61,45,30.17,30.11,30.01,10,10,10,13,6,18,0.00,2,,186
2012-10-23,69,63,56,58,55,50,100,77,53,30.06,30.02,29.99,10,8,0,16,4,23,0.21,8,Fog-Rain,194
2012-10-24,72,64,56,59,56,54,100,82,63,30.10,30.06,30.03,10,5,0,13,4,15,0.04,7,Fog-Rain,68
2012-10-25,81,71,61,54,50,46,67,49,30,30.07,30.02,29.94,10,10,10,17,10,25,0.00,0,,178
2012-10-26,69,59,49,55,49,45,93,74,55,30.18,30.10,29.94,10,8,2,18,12,26,0.01,6,Rain,12
2012-10-27,50,49,47,46,44,41,93,87,80,30.13,30.06,30.02,10,8,2,22,16,29,0.93,8,Rain,25
2012-10-28,47,45,43,41,40,39,89,83,76,30.09,30.01,29.92,10,6,2,25,18,32,0.61,8,Rain,28
2012-10-29,44,43,42,41,39,39,89,86,83,29.91,29.73,29.28,10,6,2,32,20,48,1.51,8,Rain,11
2012-10-30,54,48,41,50,43,37,93,82,71,29.37,29.20,29.05,10,8,2,36,14,52,0.48,8,Rain,53
2012-10-31,47,44,40,45,40,35,92,84,76,29.57,29.46,29.36,10,9,1,21,9,30,0.49,8,Rain,227